sensor_id;sensor_type;location;lat;lon;timestamp;P1;durP1;ratioP1;P2;durP2;ratioP2
12224;SDS011;6175;50.956;11.064;2022-12-08T00:00:06;7.95;;;4.53;;
12224;SDS011;6175;50.956;11.064;2022-12-08T00:02:35;6.77;;;4.50;;
12224;SDS011;6175;50.956;11.064;2022-12-08T00:05:02;8.38;;;4.40;;
12224;SDS011;6175;50.956;11.064;2022-12-08T00:07:47;5.03;;;4.13;;
12224;SDS011;6175;50.956;11.064;2022-12-08T00:10:32;4.72;;;4.25;;
12224;SDS011;6175;50.956;11.064;2022-12-08T00:12:59;5.30;;;4.00;;
12224;SDS011;6175;50.956;11.064;2022-12-08T00:15:26;6.45;;;4.03;;
12224;SDS011;6175;50.956;11.064;2022-12-08T00:17:54;4.57;;;3.90;;
12224;SDS011;6175;50.956;11.064;2022-12-08T00:20:21;4.93;;;4.07;;
12224;SDS011;6175;50.956;11.064;2022-12-08T00:22:48;4.80;;;4.30;;
12224;SDS011;6175;50.956;11.064;2022-12-08T00:25:15;6.18;;;3.70;;
12224;SDS011;6175;50.956;11.064;2022-12-08T00:27:42;5.22;;;4.15;;
12224;SDS011;6175;50.956;11.064;2022-12-08T00:30:10;7.03;;;3.83;;
12224;SDS011;6175;50.956;11.064;2022-12-08T00:32:37;5.70;;;3.90;;
12224;SDS011;6175;50.956;11.064;2022-12-08T00:35:06;5.72;;;3.67;;
12224;SDS011;6175;50.956;11.064;2022-12-08T00:37:33;4.03;;;3.40;;
12224;SDS011;6175;50.956;11.064;2022-12-08T00:40:00;4.97;;;3.57;;
12224;SDS011;6175;50.956;11.064;2022-12-08T00:42:28;4.65;;;3.60;;
12224;SDS011;6175;50.956;11.064;2022-12-08T00:44:55;4.80;;;3.57;;
12224;SDS011;6175;50.956;11.064;2022-12-08T00:47:22;5.03;;;3.80;;
12224;SDS011;6175;50.956;11.064;2022-12-08T00:49:49;4.72;;;4.05;;
12224;SDS011;6175;50.956;11.064;2022-12-08T00:52:18;6.17;;;3.70;;
12224;SDS011;6175;50.956;11.064;2022-12-08T00:54:45;5.88;;;4.00;;
12224;SDS011;6175;50.956;11.064;2022-12-08T00:57:13;4.53;;;3.83;;
12224;SDS011;6175;50.956;11.064;2022-12-08T00:59:39;5.03;;;3.80;;
12224;SDS011;6175;50.956;11.064;2022-12-08T01:02:06;4.80;;;3.47;;
12224;SDS011;6175;50.956;11.064;2022-12-08T01:04:33;4.20;;;3.80;;
12224;SDS011;6175;50.956;11.064;2022-12-08T01:07:01;5.60;;;3.80;;
12224;SDS011;6175;50.956;11.064;2022-12-08T01:09:29;5.95;;;3.90;;
12224;SDS011;6175;50.956;11.064;2022-12-08T01:11:56;4.55;;;4.03;;
12224;SDS011;6175;50.956;11.064;2022-12-08T01:14:23;5.40;;;3.67;;
12224;SDS011;6175;50.956;11.064;2022-12-08T01:16:50;5.72;;;4.05;;
12224;SDS011;6175;50.956;11.064;2022-12-08T01:19:18;5.23;;;3.80;;
12224;SDS011;6175;50.956;11.064;2022-12-08T01:21:45;5.13;;;3.85;;
12224;SDS011;6175;50.956;11.064;2022-12-08T01:24:12;5.97;;;4.47;;
12224;SDS011;6175;50.956;11.064;2022-12-08T01:26:42;4.63;;;4.10;;
12224;SDS011;6175;50.956;11.064;2022-12-08T01:29:10;4.37;;;3.93;;
12224;SDS011;6175;50.956;11.064;2022-12-08T01:31:37;4.63;;;4.23;;
12224;SDS011;6175;50.956;11.064;2022-12-08T01:34:04;4.93;;;4.03;;
12224;SDS011;6175;50.956;11.064;2022-12-08T01:36:32;4.90;;;4.17;;
12224;SDS011;6175;50.956;11.064;2022-12-08T01:39:01;4.40;;;3.63;;
12224;SDS011;6175;50.956;11.064;2022-12-08T01:41:31;4.73;;;3.80;;
12224;SDS011;6175;50.956;11.064;2022-12-08T01:44:45;4.33;;;3.87;;
12224;SDS011;6175;50.956;11.064;2022-12-08T01:47:08;4.20;;;3.80;;
12224;SDS011;6175;50.956;11.064;2022-12-08T01:49:37;5.00;;;3.90;;
12224;SDS011;6175;50.956;11.064;2022-12-08T01:52:07;4.63;;;4.10;;
12224;SDS011;6175;50.956;11.064;2022-12-08T01:54:40;4.87;;;3.83;;
12224;SDS011;6175;50.956;11.064;2022-12-08T01:57:11;5.40;;;4.00;;
12224;SDS011;6175;50.956;11.064;2022-12-08T01:59:45;6.22;;;3.83;;
12224;SDS011;6175;50.956;11.064;2022-12-08T02:02:15;5.87;;;3.83;;
12224;SDS011;6175;50.956;11.064;2022-12-08T02:04:42;4.55;;;4.15;;
12224;SDS011;6175;50.956;11.064;2022-12-08T02:07:09;4.53;;;4.13;;
12224;SDS011;6175;50.956;11.064;2022-12-08T02:09:38;4.38;;;3.90;;
12224;SDS011;6175;50.956;11.064;2022-12-08T02:12:06;4.77;;;4.03;;
12224;SDS011;6175;50.956;11.064;2022-12-08T02:14:35;5.10;;;4.17;;
12224;SDS011;6175;50.956;11.064;2022-12-08T02:17:04;4.85;;;4.15;;
12224;SDS011;6175;50.956;11.064;2022-12-08T02:22:47;4.63;;;4.03;;
12224;SDS011;6175;50.956;11.064;2022-12-08T02:25:21;4.82;;;3.85;;
12224;SDS011;6175;50.956;11.064;2022-12-08T02:27:58;4.82;;;4.32;;
12224;SDS011;6175;50.956;11.064;2022-12-08T02:30:37;5.03;;;4.07;;
12224;SDS011;6175;50.956;11.064;2022-12-08T02:36:29;5.00;;;4.50;;
12224;SDS011;6175;50.956;11.064;2022-12-08T02:39:04;6.03;;;4.60;;
12224;SDS011;6175;50.956;11.064;2022-12-08T02:41:37;7.00;;;5.18;;
12224;SDS011;6175;50.956;11.064;2022-12-08T02:44:11;5.17;;;4.57;;
12224;SDS011;6175;50.956;11.064;2022-12-08T02:46:47;5.13;;;4.67;;
12224;SDS011;6175;50.956;11.064;2022-12-08T02:49:18;7.05;;;5.30;;
12224;SDS011;6175;50.956;11.064;2022-12-08T02:51:45;6.37;;;5.37;;
12224;SDS011;6175;50.956;11.064;2022-12-08T02:54:13;6.07;;;5.33;;
12224;SDS011;6175;50.956;11.064;2022-12-08T02:56:48;5.80;;;5.20;;
12224;SDS011;6175;50.956;11.064;2022-12-08T02:59:31;5.87;;;5.13;;
12224;SDS011;6175;50.956;11.064;2022-12-08T03:05:08;5.85;;;4.90;;
12224;SDS011;6175;50.956;11.064;2022-12-08T03:07:48;5.00;;;4.50;;
12224;SDS011;6175;50.956;11.064;2022-12-08T03:10:24;5.03;;;4.53;;
12224;SDS011;6175;50.956;11.064;2022-12-08T03:12:57;7.17;;;4.80;;
12224;SDS011;6175;50.956;11.064;2022-12-08T03:15:29;5.30;;;4.80;;
12224;SDS011;6175;50.956;11.064;2022-12-08T03:17:57;6.43;;;4.95;;
12224;SDS011;6175;50.956;11.064;2022-12-08T03:20:27;4.68;;;4.18;;
12224;SDS011;6175;50.956;11.064;2022-12-08T03:22:57;5.38;;;4.35;;
12224;SDS011;6175;50.956;11.064;2022-12-08T03:25:26;5.40;;;4.90;;
12224;SDS011;6175;50.956;11.064;2022-12-08T03:27:56;6.30;;;4.82;;
12224;SDS011;6175;50.956;11.064;2022-12-08T03:30:24;5.43;;;4.90;;
12224;SDS011;6175;50.956;11.064;2022-12-08T03:32:55;6.10;;;5.50;;
12224;SDS011;6175;50.956;11.064;2022-12-08T03:35:29;5.73;;;4.90;;
12224;SDS011;6175;50.956;11.064;2022-12-08T03:38:02;5.43;;;4.93;;
12224;SDS011;6175;50.956;11.064;2022-12-08T03:40:31;5.18;;;4.65;;
12224;SDS011;6175;50.956;11.064;2022-12-08T03:42:58;5.10;;;4.37;;
12224;SDS011;6175;50.956;11.064;2022-12-08T03:45:25;6.17;;;4.93;;
12224;SDS011;6175;50.956;11.064;2022-12-08T03:47:52;6.40;;;5.20;;
12224;SDS011;6175;50.956;11.064;2022-12-08T03:50:19;5.60;;;4.55;;
12224;SDS011;6175;50.956;11.064;2022-12-08T03:52:48;5.20;;;4.70;;
12224;SDS011;6175;50.956;11.064;2022-12-08T03:55:16;5.33;;;4.80;;
12224;SDS011;6175;50.956;11.064;2022-12-08T03:57:43;5.30;;;4.73;;
12224;SDS011;6175;50.956;11.064;2022-12-08T04:00:12;4.57;;;4.18;;
12224;SDS011;6175;50.956;11.064;2022-12-08T04:02:41;5.60;;;4.77;;
12224;SDS011;6175;50.956;11.064;2022-12-08T04:05:08;5.80;;;5.00;;
12224;SDS011;6175;50.956;11.064;2022-12-08T04:07:35;5.40;;;4.90;;
12224;SDS011;6175;50.956;11.064;2022-12-08T04:10:04;5.20;;;4.70;;
12224;SDS011;6175;50.956;11.064;2022-12-08T04:12:32;5.20;;;4.70;;
12224;SDS011;6175;50.956;11.064;2022-12-08T04:14:59;5.27;;;4.77;;
12224;SDS011;6175;50.956;11.064;2022-12-08T04:17:26;5.97;;;5.37;;
12224;SDS011;6175;50.956;11.064;2022-12-08T04:19:54;5.70;;;5.10;;
12224;SDS011;6175;50.956;11.064;2022-12-08T04:22:21;6.27;;;4.60;;
12224;SDS011;6175;50.956;11.064;2022-12-08T04:24:48;5.30;;;4.80;;
12224;SDS011;6175;50.956;11.064;2022-12-08T04:27:16;5.78;;;5.10;;
12224;SDS011;6175;50.956;11.064;2022-12-08T04:29:43;6.43;;;5.13;;
12224;SDS011;6175;50.956;11.064;2022-12-08T04:32:11;6.87;;;5.30;;
12224;SDS011;6175;50.956;11.064;2022-12-08T04:34:38;5.47;;;4.57;;
12224;SDS011;6175;50.956;11.064;2022-12-08T04:37:05;6.77;;;4.80;;
12224;SDS011;6175;50.956;11.064;2022-12-08T04:39:32;5.57;;;5.00;;
12224;SDS011;6175;50.956;11.064;2022-12-08T04:41:59;6.20;;;4.90;;
12224;SDS011;6175;50.956;11.064;2022-12-08T04:44:28;6.73;;;4.60;;
12224;SDS011;6175;50.956;11.064;2022-12-08T04:46:55;5.47;;;4.97;;
12224;SDS011;6175;50.956;11.064;2022-12-08T04:49:22;5.23;;;4.73;;
12224;SDS011;6175;50.956;11.064;2022-12-08T04:51:49;5.77;;;5.17;;
12224;SDS011;6175;50.956;11.064;2022-12-08T04:54:16;5.30;;;4.80;;
12224;SDS011;6175;50.956;11.064;2022-12-08T04:56:43;5.80;;;5.07;;
12224;SDS011;6175;50.956;11.064;2022-12-08T04:59:10;7.47;;;5.00;;
12224;SDS011;6175;50.956;11.064;2022-12-08T05:01:39;5.33;;;4.60;;
12224;SDS011;6175;50.956;11.064;2022-12-08T05:04:06;5.43;;;4.87;;
12224;SDS011;6175;50.956;11.064;2022-12-08T05:06:33;4.83;;;4.33;;
12224;SDS011;6175;50.956;11.064;2022-12-08T05:09:01;7.37;;;5.37;;
12224;SDS011;6175;50.956;11.064;2022-12-08T05:11:28;7.13;;;5.47;;
12224;SDS011;6175;50.956;11.064;2022-12-08T05:13:56;6.63;;;5.63;;
12224;SDS011;6175;50.956;11.064;2022-12-08T05:16:23;8.23;;;5.73;;
12224;SDS011;6175;50.956;11.064;2022-12-08T05:18:52;6.90;;;6.20;;
12224;SDS011;6175;50.956;11.064;2022-12-08T05:21:19;7.10;;;6.40;;
12224;SDS011;6175;50.956;11.064;2022-12-08T05:23:46;7.53;;;6.50;;
12224;SDS011;6175;50.956;11.064;2022-12-08T05:26:13;9.57;;;6.50;;
12224;SDS011;6175;50.956;11.064;2022-12-08T05:28:40;8.13;;;6.30;;
12224;SDS011;6175;50.956;11.064;2022-12-08T05:31:07;9.83;;;6.63;;
12224;SDS011;6175;50.956;11.064;2022-12-08T05:33:35;9.57;;;6.83;;
12224;SDS011;6175;50.956;11.064;2022-12-08T05:36:04;7.30;;;6.30;;
12224;SDS011;6175;50.956;11.064;2022-12-08T05:38:32;8.37;;;6.93;;
12224;SDS011;6175;50.956;11.064;2022-12-08T05:40:59;8.03;;;5.83;;
12224;SDS011;6175;50.956;11.064;2022-12-08T05:43:26;8.73;;;6.70;;
12224;SDS011;6175;50.956;11.064;2022-12-08T05:45:53;7.27;;;6.10;;
12224;SDS011;6175;50.956;11.064;2022-12-08T05:48:20;7.67;;;6.50;;
12224;SDS011;6175;50.956;11.064;2022-12-08T05:50:47;8.50;;;7.07;;
12224;SDS011;6175;50.956;11.064;2022-12-08T05:53:17;7.70;;;6.23;;
12224;SDS011;6175;50.956;11.064;2022-12-08T05:55:45;8.77;;;6.73;;
12224;SDS011;6175;50.956;11.064;2022-12-08T05:58:13;7.40;;;6.03;;
12224;SDS011;6175;50.956;11.064;2022-12-08T06:00:42;8.30;;;6.53;;
12224;SDS011;6175;50.956;11.064;2022-12-08T06:03:10;6.83;;;5.83;;
12224;SDS011;6175;50.956;11.064;2022-12-08T06:05:39;8.37;;;7.00;;
12224;SDS011;6175;50.956;11.064;2022-12-08T06:08:06;9.07;;;6.87;;
12224;SDS011;6175;50.956;11.064;2022-12-08T06:10:35;7.70;;;6.90;;
12224;SDS011;6175;50.956;11.064;2022-12-08T06:13:03;8.30;;;7.37;;
12224;SDS011;6175;50.956;11.064;2022-12-08T06:15:30;8.53;;;6.53;;
12224;SDS011;6175;50.956;11.064;2022-12-08T06:17:59;7.30;;;6.60;;
12224;SDS011;6175;50.956;11.064;2022-12-08T06:20:26;7.97;;;7.00;;
12224;SDS011;6175;50.956;11.064;2022-12-08T06:22:53;6.90;;;6.27;;
12224;SDS011;6175;50.956;11.064;2022-12-08T06:25:21;7.60;;;6.60;;
12224;SDS011;6175;50.956;11.064;2022-12-08T06:27:50;6.83;;;6.10;;
12224;SDS011;6175;50.956;11.064;2022-12-08T06:30:17;8.77;;;6.97;;
12224;SDS011;6175;50.956;11.064;2022-12-08T06:32:44;9.80;;;7.00;;
12224;SDS011;6175;50.956;11.064;2022-12-08T06:35:11;7.80;;;7.00;;
12224;SDS011;6175;50.956;11.064;2022-12-08T06:37:38;7.77;;;6.93;;
12224;SDS011;6175;50.956;11.064;2022-12-08T06:40:06;7.93;;;7.13;;
12224;SDS011;6175;50.956;11.064;2022-12-08T06:42:33;9.33;;;7.23;;
12224;SDS011;6175;50.956;11.064;2022-12-08T06:45:13;7.00;;;5.73;;
12224;SDS011;6175;50.956;11.064;2022-12-08T06:47:41;7.63;;;6.87;;
12224;SDS011;6175;50.956;11.064;2022-12-08T06:50:08;7.37;;;6.33;;
12224;SDS011;6175;50.956;11.064;2022-12-08T06:52:36;6.93;;;5.93;;
12224;SDS011;6175;50.956;11.064;2022-12-08T06:55:05;6.53;;;5.63;;
12224;SDS011;6175;50.956;11.064;2022-12-08T06:57:33;7.90;;;6.33;;
12224;SDS011;6175;50.956;11.064;2022-12-08T07:00:00;6.67;;;6.03;;
12224;SDS011;6175;50.956;11.064;2022-12-08T07:02:28;7.33;;;6.00;;
12224;SDS011;6175;50.956;11.064;2022-12-08T07:04:55;6.83;;;6.13;;
12224;SDS011;6175;50.956;11.064;2022-12-08T07:07:22;7.67;;;6.60;;
12224;SDS011;6175;50.956;11.064;2022-12-08T07:09:49;6.63;;;5.93;;
12224;SDS011;6175;50.956;11.064;2022-12-08T07:12:16;6.70;;;6.00;;
12224;SDS011;6175;50.956;11.064;2022-12-08T07:14:44;7.03;;;6.30;;
12224;SDS011;6175;50.956;11.064;2022-12-08T07:17:11;8.03;;;6.17;;
12224;SDS011;6175;50.956;11.064;2022-12-08T07:19:39;6.68;;;5.90;;
12224;SDS011;6175;50.956;11.064;2022-12-08T07:22:06;7.47;;;6.57;;
12224;SDS011;6175;50.956;11.064;2022-12-08T07:24:33;7.03;;;5.83;;
12224;SDS011;6175;50.956;11.064;2022-12-08T07:27:03;7.53;;;6.70;;
12224;SDS011;6175;50.956;11.064;2022-12-08T07:29:30;7.03;;;5.80;;
12224;SDS011;6175;50.956;11.064;2022-12-08T07:31:57;7.73;;;6.23;;
12224;SDS011;6175;50.956;11.064;2022-12-08T07:34:24;5.87;;;5.27;;
12224;SDS011;6175;50.956;11.064;2022-12-08T07:36:52;7.13;;;5.87;;
12224;SDS011;6175;50.956;11.064;2022-12-08T07:39:19;7.50;;;6.07;;
12224;SDS011;6175;50.956;11.064;2022-12-08T07:41:46;6.70;;;6.00;;
12224;SDS011;6175;50.956;11.064;2022-12-08T07:44:14;6.67;;;6.03;;
12224;SDS011;6175;50.956;11.064;2022-12-08T07:46:41;7.57;;;6.57;;
12224;SDS011;6175;50.956;11.064;2022-12-08T07:49:09;9.67;;;6.40;;
12224;SDS011;6175;50.956;11.064;2022-12-08T07:51:37;8.60;;;7.33;;
12224;SDS011;6175;50.956;11.064;2022-12-08T07:54:08;7.60;;;6.23;;
12224;SDS011;6175;50.956;11.064;2022-12-08T07:56:36;7.93;;;6.67;;
12224;SDS011;6175;50.956;11.064;2022-12-08T07:59:03;8.50;;;6.23;;
12224;SDS011;6175;50.956;11.064;2022-12-08T08:01:31;8.00;;;6.77;;
12224;SDS011;6175;50.956;11.064;2022-12-08T08:04:00;9.90;;;6.83;;
12224;SDS011;6175;50.956;11.064;2022-12-08T08:06:29;8.00;;;6.73;;
12224;SDS011;6175;50.956;11.064;2022-12-08T08:08:56;9.77;;;7.43;;
12224;SDS011;6175;50.956;11.064;2022-12-08T08:11:25;10.30;;;7.17;;
12224;SDS011;6175;50.956;11.064;2022-12-08T08:13:52;8.53;;;7.47;;
12224;SDS011;6175;50.956;11.064;2022-12-08T08:16:19;8.07;;;6.80;;
12224;SDS011;6175;50.956;11.064;2022-12-08T08:18:47;8.57;;;6.47;;
12224;SDS011;6175;50.956;11.064;2022-12-08T08:21:14;9.07;;;6.87;;
12224;SDS011;6175;50.956;11.064;2022-12-08T08:23:42;7.27;;;6.57;;
12224;SDS011;6175;50.956;11.064;2022-12-08T08:26:09;7.10;;;5.93;;
12224;SDS011;6175;50.956;11.064;2022-12-08T08:28:37;8.57;;;5.80;;
12224;SDS011;6175;50.956;11.064;2022-12-08T08:31:07;6.17;;;5.57;;
12224;SDS011;6175;50.956;11.064;2022-12-08T08:33:34;8.23;;;5.90;;
12224;SDS011;6175;50.956;11.064;2022-12-08T08:36:05;7.63;;;5.73;;
12224;SDS011;6175;50.956;11.064;2022-12-08T08:38:32;6.90;;;5.77;;
12224;SDS011;6175;50.956;11.064;2022-12-08T08:41:05;5.73;;;5.07;;
12224;SDS011;6175;50.956;11.064;2022-12-08T08:43:33;6.97;;;5.83;;
12224;SDS011;6175;50.956;11.064;2022-12-08T08:46:02;7.07;;;5.73;;
12224;SDS011;6175;50.956;11.064;2022-12-08T08:48:30;6.67;;;5.93;;
12224;SDS011;6175;50.956;11.064;2022-12-08T08:50:57;5.03;;;4.53;;
12224;SDS011;6175;50.956;11.064;2022-12-08T08:53:24;6.70;;;5.20;;
12224;SDS011;6175;50.956;11.064;2022-12-08T08:55:51;5.27;;;4.53;;
12224;SDS011;6175;50.956;11.064;2022-12-08T08:58:18;4.60;;;4.10;;
12224;SDS011;6175;50.956;11.064;2022-12-08T09:00:45;12.23;;;5.43;;
12224;SDS011;6175;50.956;11.064;2022-12-08T09:03:14;13.20;;;6.03;;
12224;SDS011;6175;50.956;11.064;2022-12-08T09:05:42;7.63;;;4.97;;
12224;SDS011;6175;50.956;11.064;2022-12-08T09:08:10;4.47;;;3.90;;
12224;SDS011;6175;50.956;11.064;2022-12-08T09:10:37;5.13;;;4.63;;
12224;SDS011;6175;50.956;11.064;2022-12-08T09:13:04;5.87;;;4.73;;
12224;SDS011;6175;50.956;11.064;2022-12-08T09:15:32;5.18;;;4.68;;
12224;SDS011;6175;50.956;11.064;2022-12-08T09:17:59;11.65;;;5.10;;
12224;SDS011;6175;50.956;11.064;2022-12-08T09:20:27;4.97;;;4.45;;
12224;SDS011;6175;50.956;11.064;2022-12-08T09:22:54;5.85;;;4.75;;
12224;SDS011;6175;50.956;11.064;2022-12-08T09:25:21;7.45;;;5.85;;
12224;SDS011;6175;50.956;11.064;2022-12-08T09:27:48;6.55;;;5.88;;
12224;SDS011;6175;50.956;11.064;2022-12-08T09:30:15;5.78;;;4.82;;
12224;SDS011;6175;50.956;11.064;2022-12-08T09:32:42;5.10;;;4.60;;
12224;SDS011;6175;50.956;11.064;2022-12-08T09:35:09;10.30;;;5.63;;
12224;SDS011;6175;50.956;11.064;2022-12-08T09:37:38;5.13;;;4.63;;
12224;SDS011;6175;50.956;11.064;2022-12-08T09:40:05;5.10;;;4.60;;
12224;SDS011;6175;50.956;11.064;2022-12-08T09:42:36;5.15;;;4.68;;
12224;SDS011;6175;50.956;11.064;2022-12-08T09:45:10;5.40;;;4.70;;
12224;SDS011;6175;50.956;11.064;2022-12-08T09:47:39;5.90;;;5.30;;
12224;SDS011;6175;50.956;11.064;2022-12-08T09:50:11;5.60;;;5.10;;
12224;SDS011;6175;50.956;11.064;2022-12-08T09:52:46;5.70;;;5.00;;
12224;SDS011;6175;50.956;11.064;2022-12-08T09:55:20;5.15;;;4.65;;
12224;SDS011;6175;50.956;11.064;2022-12-08T09:57:53;5.57;;;5.03;;
12224;SDS011;6175;50.956;11.064;2022-12-08T10:00:25;5.00;;;4.50;;
12224;SDS011;6175;50.956;11.064;2022-12-08T10:02:54;4.55;;;4.13;;
12224;SDS011;6175;50.956;11.064;2022-12-08T10:05:21;5.05;;;4.55;;
12224;SDS011;6175;50.956;11.064;2022-12-08T10:07:55;7.93;;;5.15;;
12224;SDS011;6175;50.956;11.064;2022-12-08T10:10:32;13.80;;;5.53;;
12224;SDS011;6175;50.956;11.064;2022-12-08T10:13:05;7.45;;;5.05;;
12224;SDS011;6175;50.956;11.064;2022-12-08T10:15:39;6.20;;;4.78;;
12224;SDS011;6175;50.956;11.064;2022-12-08T10:18:11;4.43;;;4.03;;
12224;SDS011;6175;50.956;11.064;2022-12-08T10:20:42;4.78;;;4.20;;
12224;SDS011;6175;50.956;11.064;2022-12-08T10:23:15;3.60;;;3.30;;
12224;SDS011;6175;50.956;11.064;2022-12-08T10:25:51;4.47;;;3.80;;
12224;SDS011;6175;50.956;11.064;2022-12-08T10:28:23;4.95;;;4.15;;
12224;SDS011;6175;50.956;11.064;2022-12-08T10:30:50;3.55;;;3.25;;
12224;SDS011;6175;50.956;11.064;2022-12-08T10:33:18;3.65;;;3.35;;
12224;SDS011;6175;50.956;11.064;2022-12-08T10:35:47;3.47;;;3.00;;
12224;SDS011;6175;50.956;11.064;2022-12-08T10:38:18;4.05;;;3.65;;
12224;SDS011;6175;50.956;11.064;2022-12-08T10:40:48;4.65;;;3.78;;
12224;SDS011;6175;50.956;11.064;2022-12-08T10:43:18;3.40;;;3.10;;
12224;SDS011;6175;50.956;11.064;2022-12-08T10:45:47;3.35;;;3.05;;
12224;SDS011;6175;50.956;11.064;2022-12-08T10:48:16;3.53;;;3.20;;
12224;SDS011;6175;50.956;11.064;2022-12-08T10:50:45;3.67;;;3.33;;
12224;SDS011;6175;50.956;11.064;2022-12-08T10:53:20;4.40;;;3.20;;
12224;SDS011;6175;50.956;11.064;2022-12-08T10:55:50;3.42;;;3.03;;
12224;SDS011;6175;50.956;11.064;2022-12-08T10:58:24;3.50;;;3.20;;
12224;SDS011;6175;50.956;11.064;2022-12-08T11:00:53;3.30;;;3.00;;
12224;SDS011;6175;50.956;11.064;2022-12-08T11:03:24;3.13;;;2.83;;
12224;SDS011;6175;50.956;11.064;2022-12-08T11:05:54;4.30;;;2.90;;
12224;SDS011;6175;50.956;11.064;2022-12-08T11:08:25;3.13;;;2.50;;
12224;SDS011;6175;50.956;11.064;2022-12-08T11:10:53;3.10;;;2.80;;
12224;SDS011;6175;50.956;11.064;2022-12-08T11:13:21;3.88;;;2.53;;
12224;SDS011;6175;50.956;11.064;2022-12-08T11:15:50;2.70;;;2.50;;
12224;SDS011;6175;50.956;11.064;2022-12-08T11:18:23;2.67;;;2.47;;
12224;SDS011;6175;50.956;11.064;2022-12-08T11:21:07;2.38;;;2.17;;
12224;SDS011;6175;50.956;11.064;2022-12-08T11:23:38;2.70;;;2.50;;
12224;SDS011;6175;50.956;11.064;2022-12-08T11:26:11;2.58;;;2.38;;
12224;SDS011;6175;50.956;11.064;2022-12-08T11:28:45;2.67;;;2.42;;
12224;SDS011;6175;50.956;11.064;2022-12-08T11:31:16;3.00;;;2.53;;
12224;SDS011;6175;50.956;11.064;2022-12-08T11:33:57;3.42;;;3.13;;
12224;SDS011;6175;50.956;11.064;2022-12-08T11:36:25;2.95;;;2.42;;
12224;SDS011;6175;50.956;11.064;2022-12-08T11:38:57;3.60;;;3.30;;
12224;SDS011;6175;50.956;11.064;2022-12-08T11:41:27;3.22;;;2.88;;
12224;SDS011;6175;50.956;11.064;2022-12-08T11:44:00;3.58;;;3.28;;
12224;SDS011;6175;50.956;11.064;2022-12-08T11:46:33;3.08;;;2.88;;
12224;SDS011;6175;50.956;11.064;2022-12-08T11:49:08;2.78;;;2.58;;
12224;SDS011;6175;50.956;11.064;2022-12-08T11:51:38;2.90;;;2.70;;
12224;SDS011;6175;50.956;11.064;2022-12-08T11:54:12;3.50;;;3.20;;
12224;SDS011;6175;50.956;11.064;2022-12-08T11:56:46;3.33;;;2.95;;
12224;SDS011;6175;50.956;11.064;2022-12-08T11:59:18;3.10;;;2.90;;
12224;SDS011;6175;50.956;11.064;2022-12-08T12:01:50;3.35;;;2.78;;
12224;SDS011;6175;50.956;11.064;2022-12-08T12:04:20;4.25;;;3.00;;
12224;SDS011;6175;50.956;11.064;2022-12-08T12:07:01;3.95;;;2.97;;
12224;SDS011;6175;50.956;11.064;2022-12-08T12:09:46;2.78;;;2.35;;
12224;SDS011;6175;50.956;11.064;2022-12-08T12:12:28;2.72;;;2.53;;
12224;SDS011;6175;50.956;11.064;2022-12-08T12:15:14;3.10;;;2.80;;
12224;SDS011;6175;50.956;11.064;2022-12-08T12:17:53;3.10;;;2.65;;
12224;SDS011;6175;50.956;11.064;2022-12-08T12:20:26;3.15;;;2.60;;
12224;SDS011;6175;50.956;11.064;2022-12-08T12:22:57;3.60;;;2.88;;
12224;SDS011;6175;50.956;11.064;2022-12-08T12:25:31;3.92;;;2.70;;
12224;SDS011;6175;50.956;11.064;2022-12-08T12:28:01;3.00;;;2.70;;
12224;SDS011;6175;50.956;11.064;2022-12-08T12:30:32;3.08;;;2.75;;
12224;SDS011;6175;50.956;11.064;2022-12-08T12:33:15;2.45;;;2.25;;
12224;SDS011;6175;50.956;11.064;2022-12-08T12:35:43;2.47;;;2.03;;
12224;SDS011;6175;50.956;11.064;2022-12-08T12:38:17;3.28;;;2.75;;
12224;SDS011;6175;50.956;11.064;2022-12-08T12:41:03;2.72;;;2.50;;
12224;SDS011;6175;50.956;11.064;2022-12-08T12:43:33;2.80;;;2.60;;
12224;SDS011;6175;50.956;11.064;2022-12-08T12:55:21;2.60;;;2.40;;
12224;SDS011;6175;50.956;11.064;2022-12-08T12:58:19;3.05;;;2.25;;
12224;SDS011;6175;50.956;11.064;2022-12-08T13:00:48;2.80;;;2.60;;
12224;SDS011;6175;50.956;11.064;2022-12-08T13:03:16;3.50;;;2.83;;
12224;SDS011;6175;50.956;11.064;2022-12-08T13:05:46;2.60;;;2.40;;
12224;SDS011;6175;50.956;11.064;2022-12-08T13:08:18;2.45;;;2.25;;
12224;SDS011;6175;50.956;11.064;2022-12-08T13:10:48;2.80;;;2.60;;
12224;SDS011;6175;50.956;11.064;2022-12-08T13:13:25;4.57;;;3.40;;
12224;SDS011;6175;50.956;11.064;2022-12-08T13:15:54;4.90;;;3.28;;
12224;SDS011;6175;50.956;11.064;2022-12-08T13:18:23;3.42;;;3.13;;
12224;SDS011;6175;50.956;11.064;2022-12-08T13:20:52;4.35;;;3.00;;
12224;SDS011;6175;50.956;11.064;2022-12-08T13:23:25;3.25;;;2.95;;
12224;SDS011;6175;50.956;11.064;2022-12-08T13:29:12;3.42;;;3.13;;
12224;SDS011;6175;50.956;11.064;2022-12-08T13:31:48;3.08;;;2.88;;
12224;SDS011;6175;50.956;11.064;2022-12-08T13:34:27;3.00;;;2.78;;
12224;SDS011;6175;50.956;11.064;2022-12-08T13:37:01;2.85;;;2.65;;
12224;SDS011;6175;50.956;11.064;2022-12-08T13:39:42;3.22;;;2.92;;
12224;SDS011;6175;50.956;11.064;2022-12-08T13:42:16;3.78;;;3.10;;
12224;SDS011;6175;50.956;11.064;2022-12-08T13:44:52;3.80;;;2.85;;
12224;SDS011;6175;50.956;11.064;2022-12-08T13:47:23;2.97;;;2.78;;
12224;SDS011;6175;50.956;11.064;2022-12-08T13:49:56;3.13;;;2.50;;
12224;SDS011;6175;50.956;11.064;2022-12-08T13:52:29;3.38;;;3.05;;
12224;SDS011;6175;50.956;11.064;2022-12-08T13:54:59;3.35;;;2.50;;
12224;SDS011;6175;50.956;11.064;2022-12-08T13:57:29;2.70;;;2.50;;
12224;SDS011;6175;50.956;11.064;2022-12-08T14:00:00;2.60;;;2.40;;
12224;SDS011;6175;50.956;11.064;2022-12-08T14:02:32;4.35;;;2.58;;
12224;SDS011;6175;50.956;11.064;2022-12-08T14:05:02;2.42;;;2.22;;
12224;SDS011;6175;50.956;11.064;2022-12-08T14:07:30;3.05;;;2.50;;
12224;SDS011;6175;50.956;11.064;2022-12-08T14:09:57;2.78;;;2.58;;
12224;SDS011;6175;50.956;11.064;2022-12-08T14:12:26;2.53;;;2.33;;
12224;SDS011;6175;50.956;11.064;2022-12-08T14:14:56;2.72;;;2.40;;
12224;SDS011;6175;50.956;11.064;2022-12-08T14:17:26;2.38;;;2.15;;
12224;SDS011;6175;50.956;11.064;2022-12-08T14:19:55;3.03;;;2.70;;
12224;SDS011;6175;50.956;11.064;2022-12-08T14:22:23;2.42;;;2.22;;
12224;SDS011;6175;50.956;11.064;2022-12-08T14:24:51;2.85;;;2.65;;
12224;SDS011;6175;50.956;11.064;2022-12-08T14:27:19;2.35;;;2.13;;
12224;SDS011;6175;50.956;11.064;2022-12-08T14:29:49;2.85;;;2.55;;
12224;SDS011;6175;50.956;11.064;2022-12-08T14:32:25;2.90;;;2.13;;
12224;SDS011;6175;50.956;11.064;2022-12-08T14:34:56;2.60;;;2.40;;
12224;SDS011;6175;50.956;11.064;2022-12-08T14:37:26;2.65;;;2.45;;
12224;SDS011;6175;50.956;11.064;2022-12-08T14:39:59;2.65;;;2.45;;
12224;SDS011;6175;50.956;11.064;2022-12-08T14:42:28;3.42;;;2.50;;
12224;SDS011;6175;50.956;11.064;2022-12-08T14:44:57;3.13;;;2.83;;
12224;SDS011;6175;50.956;11.064;2022-12-08T14:47:31;3.20;;;2.90;;
12224;SDS011;6175;50.956;11.064;2022-12-08T14:49:59;2.90;;;2.60;;
12224;SDS011;6175;50.956;11.064;2022-12-08T14:52:27;2.85;;;2.65;;
12224;SDS011;6175;50.956;11.064;2022-12-08T14:54:55;2.70;;;2.38;;
12224;SDS011;6175;50.956;11.064;2022-12-08T14:57:26;2.75;;;2.53;;
12224;SDS011;6175;50.956;11.064;2022-12-08T15:00:04;2.17;;;2.08;;
12224;SDS011;6175;50.956;11.064;2022-12-08T15:02:36;2.47;;;2.28;;
12224;SDS011;6175;50.956;11.064;2022-12-08T15:05:09;2.53;;;2.28;;
12224;SDS011;6175;50.956;11.064;2022-12-08T15:07:43;2.85;;;2.55;;
12224;SDS011;6175;50.956;11.064;2022-12-08T15:10:20;2.70;;;2.50;;
12224;SDS011;6175;50.956;11.064;2022-12-08T15:13:01;2.60;;;2.40;;
12224;SDS011;6175;50.956;11.064;2022-12-08T15:15:30;3.22;;;2.40;;
12224;SDS011;6175;50.956;11.064;2022-12-08T15:18:13;3.67;;;2.50;;
12224;SDS011;6175;50.956;11.064;2022-12-08T15:20:42;2.60;;;2.40;;
12224;SDS011;6175;50.956;11.064;2022-12-08T15:23:19;3.35;;;2.60;;
12224;SDS011;6175;50.956;11.064;2022-12-08T15:25:48;2.60;;;2.40;;